Madison, MN

10:59 PM CDT on July 27, 2017 (GMT -0500)
Madison-Lac Qui Parle County

Weather History for KDXX - November, 2012

Change the Weather History Date:

Tuesday, November 27, 2012

  Actual Average (KAQP) Record (KAQP)
Temperature  
Mean Temperature 24 °F -  
Max Temperature 37 °F 32 °F 55 °F (1998)
Min Temperature 12 °F 16 °F -11 °F (2014)
Degree Days  
Heating Degree Days 40    
Moisture  
Dew Point 17 °F    
Average Humidity 69    
Maximum Humidity 93    
Minimum Humidity 52    
Precipitation  
Precipitation 0.00 in - - ()
Sea Level Pressure  
Sea Level Pressure 30.17 in    
Wind  
Wind Speed 9 mph (West)    
Max Wind Speed 14 mph    
Max Gust Speed 18 mph    
Visibility 10 miles    
Events      
Averages and records for this station are not official NWS values.
T = Trace of Precipitation, MM = Missing Value Source: NWS Daily Summary

Daily Weather History Graph

Daily Weather History Graph

Search for Another Location

Airport or City:

Trip Planner

Search our weather history database for the weather conditions in past years. The results will help you decide how hot, cold, wet, or windy it might be!

Date:

Astronomy

Nov. 27, 2012 Rise Set
Actual Time 7:38 AM CST 4:46 PM CST
Civil Twilight 7:05 AM CST 5:19 PM CST
Nautical Twilight 6:29 AM CST 5:55 PM CST
Astronomical Twilight 5:54 AM CST 6:30 PM CST
Moon 4:19 PM CST (11/27) 6:43 AM CST (11/27)
Length of Visible Light 10h 13m
Length of Day
9h 07m
Waxing Gibbous, 99% of the Moon is Illuminated
Nov 27
Waxing Gibbous
Nov 28
Full
Dec 6
Last Quarter
Dec 13
New
Dec 19
First Quarter

Hourly Weather History & Observations

Time (CST) Temp. Windchill Dew Point Humidity Pressure Visibility Wind Dir Wind Speed Gust Speed Precip Events Conditions
12:14 AM 21.2 °F 11.7 °F 8.6 °F 58% 30.28 in 10.0 mi SW 8.1 mph - N/A   Clear
12:33 AM 21.2 °F 12.6 °F 10.4 °F 63% 30.27 in 10.0 mi WSW 6.9 mph - N/A   Clear
12:54 AM 21.2 °F 11.7 °F 10.4 °F 63% 30.26 in 10.0 mi WSW 8.1 mph - N/A   Clear
1:14 AM 23.0 °F 11.7 °F 10.4 °F 59% 30.25 in 10.0 mi WSW 11.5 mph - N/A   Clear
1:33 AM 23.0 °F 13.1 °F 10.4 °F 59% 30.24 in 10.0 mi WSW 9.2 mph - N/A   Clear
1:54 AM 24.8 °F 14.6 °F 10.4 °F 54% 30.24 in 10.0 mi WSW 10.4 mph - N/A   Clear
2:14 AM 23.0 °F 13.1 °F 10.4 °F 59% 30.23 in 10.0 mi WSW 9.2 mph - N/A   Clear
2:33 AM 24.8 °F 14.6 °F 12.2 °F 59% 30.23 in 10.0 mi WSW 10.4 mph - N/A   Clear
2:54 AM 24.8 °F 16.1 °F 14.0 °F 64% 30.23 in 10.0 mi SW 8.1 mph - N/A   Clear
3:14 AM 24.8 °F 16.9 °F 15.8 °F 69% 30.22 in 10.0 mi WSW 6.9 mph - N/A   Clear
3:33 AM 26.6 °F 16.8 °F 17.6 °F 69% 30.20 in 10.0 mi WSW 10.4 mph - N/A   Clear
3:54 AM 26.6 °F 16.8 °F 17.6 °F 69% 30.20 in 10.0 mi SW 10.4 mph - N/A   Clear
4:14 AM 26.6 °F 15.7 °F 17.6 °F 69% 30.19 in 10.0 mi SW 12.7 mph - N/A   Clear
4:33 AM 26.6 °F 15.2 °F 17.6 °F 69% 30.18 in 10.0 mi SW 13.8 mph - N/A   Clear
4:54 AM 26.6 °F 15.2 °F 17.6 °F 69% 30.18 in 10.0 mi SSW 13.8 mph 18.4 mph N/A   Clear
5:14 AM 24.8 °F 14.6 °F 17.6 °F 74% 30.17 in 10.0 mi SSW 10.4 mph - N/A   Clear
5:33 AM 26.6 °F 16.2 °F 17.6 °F 69% 30.16 in 10.0 mi SW 11.5 mph - N/A   Clear
5:54 AM 26.6 °F 16.2 °F 17.6 °F 69% 30.15 in 10.0 mi SSW 11.5 mph - N/A   Clear
6:14 AM 24.8 °F 14.6 °F 17.6 °F 74% 30.14 in 10.0 mi SSW 10.4 mph - N/A   Clear
6:33 AM 26.6 °F 18.2 °F 19.4 °F 74% 30.13 in 10.0 mi SSW 8.1 mph - N/A   Clear
6:54 AM 26.6 °F 17.5 °F 19.4 °F 74% 30.13 in 10.0 mi SSW 9.2 mph - N/A   Clear
7:14 AM 26.6 °F 18.2 °F 19.4 °F 74% 30.13 in 10.0 mi SW 8.1 mph - N/A   Clear
7:33 AM 24.8 °F 16.1 °F 19.4 °F 80% 30.12 in 10.0 mi SW 8.1 mph - N/A   Clear
7:54 AM 24.8 °F 19.1 °F 17.6 °F 74% 30.12 in 10.0 mi SSW 4.6 mph - N/A   Clear
8:13 AM 24.8 °F 17.9 °F 17.6 °F 74% 30.13 in 10.0 mi SW 5.8 mph - N/A   Clear
8:34 AM 24.8 °F 17.9 °F 17.6 °F 74% 30.13 in 10.0 mi SW 5.8 mph - N/A   Clear
8:54 AM 26.6 °F 20.0 °F 19.4 °F 74% 30.13 in 10.0 mi WSW 5.8 mph - N/A   Clear
9:13 AM 28.4 °F 19.1 °F 19.4 °F 69% 30.12 in 10.0 mi WSW 10.4 mph - N/A   Clear
9:34 AM 30.2 °F 20.8 °F 19.4 °F 64% 30.12 in 10.0 mi WSW 11.5 mph - N/A   Clear
9:53 AM 30.2 °F 21.3 °F 21.2 °F 69% 30.11 in 10.0 mi WSW 10.4 mph - N/A   Clear
10:14 AM 33.8 °F 25.3 °F 21.2 °F 60% 30.11 in 10.0 mi WSW 11.5 mph 17.3 mph N/A   Clear
10:34 AM 33.8 °F 25.8 °F 21.2 °F 60% 30.11 in 10.0 mi West 10.4 mph - N/A   Clear
10:53 AM 33.8 °F 25.8 °F 21.2 °F 60% 30.11 in 10.0 mi WSW 10.4 mph - N/A   Clear
11:14 AM 35.6 °F 28.0 °F 21.2 °F 56% 30.11 in 10.0 mi WNW 10.4 mph - N/A   Clear
11:34 AM 35.6 °F 28.0 °F 21.2 °F 56% 30.11 in 10.0 mi West 10.4 mph - N/A   Clear
11:53 AM 35.6 °F 27.1 °F 21.2 °F 56% 30.10 in 10.0 mi West 12.7 mph - N/A   Clear
12:14 PM 35.6 °F 28.0 °F 21.2 °F 56% 30.09 in 10.0 mi West 10.4 mph - N/A   Clear
12:34 PM 35.6 °F 29.9 °F 21.2 °F 56% 30.08 in 10.0 mi WNW 6.9 mph - N/A   Clear
12:53 PM 35.6 °F 28.6 °F 21.2 °F 56% 30.08 in 10.0 mi WNW 9.2 mph - N/A   Clear
1:14 PM 35.6 °F 28.6 °F 21.2 °F 56% 30.08 in 10.0 mi WNW 9.2 mph - N/A   Clear
1:34 PM 37.4 °F 30.3 °F 21.2 °F 52% 30.08 in 10.0 mi WNW 10.4 mph - N/A   Clear
1:53 PM 37.4 °F 30.3 °F 21.2 °F 52% 30.08 in 10.0 mi NW 10.4 mph - N/A   Clear
2:14 PM 37.4 °F 30.8 °F 21.2 °F 52% 30.08 in 10.0 mi NW 9.2 mph - N/A   Clear
2:34 PM 37.4 °F 29.8 °F 23.0 °F 56% 30.09 in 10.0 mi NNW 11.5 mph - N/A   Clear
2:53 PM 37.4 °F 29.8 °F 23.0 °F 56% 30.09 in 10.0 mi NNW 11.5 mph - N/A   Clear
3:14 PM 37.4 °F 30.3 °F 23.0 °F 56% 30.10 in 10.0 mi NNW 10.4 mph - N/A   Clear
3:34 PM 35.6 °F 27.5 °F 23.0 °F 60% 30.12 in 10.0 mi NNW 11.5 mph - N/A   Clear
3:53 PM 35.6 °F 28.6 °F 21.2 °F 56% 30.12 in 10.0 mi NNW 9.2 mph - N/A   Clear
4:14 PM 33.8 °F 27.0 °F 21.2 °F 60% 30.13 in 10.0 mi NNW 8.1 mph - N/A   Clear
4:34 PM 32.0 °F 24.8 °F 21.2 °F 64% 30.14 in 10.0 mi NNW 8.1 mph - N/A   Clear
4:53 PM 30.2 °F 21.9 °F 21.2 °F 69% 30.15 in 10.0 mi North 9.2 mph - N/A   Clear
5:14 PM 28.4 °F 21.2 °F 21.2 °F 74% 30.16 in 10.0 mi North 6.9 mph - N/A   Clear
5:53 PM 26.6 °F 18.2 °F 19.4 °F 74% 30.18 in 10.0 mi NNW 8.1 mph - N/A   Clear
6:14 PM 26.6 °F 18.2 °F 19.4 °F 74% 30.19 in 10.0 mi NNW 8.1 mph - N/A   Clear
6:33 PM 24.8 °F 16.9 °F 19.4 °F 80% 30.20 in 10.0 mi NNW 6.9 mph - N/A   Clear
6:54 PM 24.8 °F 16.9 °F 17.6 °F 74% 30.21 in 10.0 mi NNW 6.9 mph - N/A   Clear
7:14 PM 24.8 °F 19.1 °F 17.6 °F 74% 30.21 in 10.0 mi NW 4.6 mph - N/A   Clear
7:33 PM 21.2 °F 13.6 °F 17.6 °F 86% 30.22 in 10.0 mi NW 5.8 mph - N/A   Clear
7:54 PM 17.6 °F 10.7 °F 15.8 °F 93% 30.22 in 10.0 mi WNW 4.6 mph - N/A   Clear
8:14 PM 19.4 °F 14.3 °F 15.8 °F 86% 30.23 in 10.0 mi WNW 3.5 mph - N/A   Clear
8:33 PM 17.6 °F 10.7 °F 14.0 °F 86% 30.24 in 10.0 mi WNW 4.6 mph - N/A   Clear
8:54 PM 15.8 °F - 12.2 °F 86% 30.25 in 10.0 mi Calm Calm - N/A   Clear
9:14 PM 17.6 °F 10.7 °F 14.0 °F 86% 30.25 in 10.0 mi WNW 4.6 mph - N/A   Clear
9:33 PM 15.8 °F 10.2 °F 10.4 °F 79% 30.26 in 10.0 mi NW 3.5 mph - N/A   Clear
9:54 PM 17.6 °F 9.3 °F 12.2 °F 79% 30.26 in 10.0 mi NW 5.8 mph - N/A   Clear
10:14 PM 17.6 °F 9.3 °F 14.0 °F 86% 30.27 in 10.0 mi NW 5.8 mph - N/A   Clear
10:33 PM 15.8 °F 7.2 °F 12.2 °F 86% 30.27 in 10.0 mi WNW 5.8 mph - N/A   Clear
10:54 PM 15.8 °F 10.2 °F 12.2 °F 86% 30.27 in 10.0 mi WNW 3.5 mph - N/A   Clear
11:14 PM 14.0 °F 8.2 °F 12.2 °F 93% 30.28 in 10.0 mi WNW 3.5 mph - N/A   Clear
11:33 PM 12.2 °F 4.3 °F 10.4 °F 92% 30.28 in 10.0 mi West 4.6 mph - N/A   Clear
11:54 PM 14.0 °F 8.2 °F 10.4 °F 86% 30.28 in 10.0 mi WNW 3.5 mph - N/A   Clear